This is the latest recevied weather packets stored in our database for station/object N3WMC. If no packets are shown the sender has not sent any weather packets the latest 10 day(s).
| Time | Temp. | Humidity | Pressure | Rain* | Wind** | Luminosity | Snow |
|---|---|---|---|---|---|---|---|
| 1787858295 | 28.33° C | 66% | 1015 hPa | 0 mm | - | 480 W/m² | - |
| 1787857990 | 28.89° C | 64% | 1015 hPa | 0 mm | - | 486 W/m² | - |
| 1787857686 | 28.33° C | 65% | 1015.1 hPa | 0 mm | - | 486 W/m² | - |
| 1787857381 | 27.78° C | 66% | 1015.2 hPa | 0 mm | - | 496 W/m² | - |
| 1787857079 | 28.33° C | 64% | 1015.1 hPa | 0 mm | - | 510 W/m² | - |
| 1787856774 | 27.78° C | 66% | 1015.2 hPa | 0 mm | - | 513 W/m² | - |
| 1787856468 | 28.33° C | 64% | 1015.2 hPa | 0 mm | - | 525 W/m² | - |
| 1787856164 | 28.33° C | 63% | 1015.3 hPa | 0 mm | - | 464 W/m² | - |
| 1787855859 | 28.33° C | 65% | 1015.5 hPa | 0 mm | - | 519 W/m² | - |
| 1787855558 | 27.22° C | 68% | 1015.4 hPa | 0 mm | - | 565 W/m² | - |
| 1787855254 | 27.78° C | 68% | 1015.3 hPa | 0 mm | - | 163 W/m² | - |
| 1787854950 | 26.67° C | 70% | 1015.5 hPa | 0 mm | - | 650 W/m² | - |
| 1787854645 | 27.22° C | 70% | 1015.6 hPa | 0 mm | - | 167 W/m² | - |
| 1787854339 | 26.67° C | 70% | 1015.5 hPa | 0 mm | - | 223 W/m² | - |
| 1787854033 | 26.67° C | 70% | 1015.5 hPa | 0 mm | - | 161 W/m² | - |
| 1787853728 | 26.67° C | 69% | 1015.7 hPa | 0 mm | - | 287 W/m² | - |
| 1787853427 | 26.67° C | 70% | 1015.7 hPa | 0 mm | - | 242 W/m² | - |
| 1787853126 | 27.22° C | 68% | 1015.5 hPa | 0 mm | - | 167 W/m² | - |
| 1787852821 | 27.22° C | 68% | 1015.4 hPa | 0 mm | - | 260 W/m² | - |
| 1787852520 | 27.78° C | 66% | 1015.8 hPa | 0 mm | - | 248 W/m² | - |
| 1787852214 | 27.78° C | 67% | 1015.7 hPa | 0 mm | - | 312 W/m² | - |
| 1787851909 | 27.78° C | 66% | 1015.8 hPa | 0 mm | - | 380 W/m² | - |
| 1787851608 | 26.67° C | 69% | 1015.8 hPa | 0 mm | - | 620 W/m² | - |
| 1787851303 | 27.22° C | 70% | 1015.9 hPa | 0 mm | - | 377 W/m² | - |
| 1787850998 | 26.67° C | 70% | 1015.7 hPa | 0 mm | - | 380 W/m² | - |
* Rain latest hour (hover to see other rain measurements)
** Current wind speed in m/s (hover to see current wind gust speed)